sensor_id;sensor_type;location;lat;lon;timestamp;P1;durP1;ratioP1;P2;durP2;ratioP2
70148;SDS011;57514;52.164;5.282;2023-01-09T00:00:27;3.08;;;1.05;;
70148;SDS011;57514;52.164;5.282;2023-01-09T00:02:54;4.63;;;1.23;;
70148;SDS011;57514;52.164;5.282;2023-01-09T00:05:21;6.03;;;1.42;;
70148;SDS011;57514;52.164;5.282;2023-01-09T00:07:48;2.00;;;0.95;;
70148;SDS011;57514;52.164;5.282;2023-01-09T00:10:16;5.25;;;1.80;;
70148;SDS011;57514;52.164;5.282;2023-01-09T00:12:43;4.35;;;1.40;;
70148;SDS011;57514;52.164;5.282;2023-01-09T00:15:10;4.03;;;1.40;;
70148;SDS011;57514;52.164;5.282;2023-01-09T00:17:38;2.42;;;1.40;;
70148;SDS011;57514;52.164;5.282;2023-01-09T00:20:06;3.08;;;1.23;;
70148;SDS011;57514;52.164;5.282;2023-01-09T00:22:35;4.20;;;1.15;;
70148;SDS011;57514;52.164;5.282;2023-01-09T00:25:03;2.00;;;1.00;;
70148;SDS011;57514;52.164;5.282;2023-01-09T00:27:31;4.32;;;1.63;;
70148;SDS011;57514;52.164;5.282;2023-01-09T00:29:58;2.30;;;0.77;;
70148;SDS011;57514;52.164;5.282;2023-01-09T00:32:25;1.88;;;1.02;;
70148;SDS011;57514;52.164;5.282;2023-01-09T00:34:54;5.85;;;1.33;;
70148;SDS011;57514;52.164;5.282;2023-01-09T00:37:21;3.70;;;1.33;;
70148;SDS011;57514;52.164;5.282;2023-01-09T00:39:48;3.78;;;1.38;;
70148;SDS011;57514;52.164;5.282;2023-01-09T00:42:17;4.85;;;1.20;;
70148;SDS011;57514;52.164;5.282;2023-01-09T00:44:47;4.65;;;1.38;;
70148;SDS011;57514;52.164;5.282;2023-01-09T00:47:30;3.50;;;1.60;;
70148;SDS011;57514;52.164;5.282;2023-01-09T00:49:59;5.22;;;1.17;;
70148;SDS011;57514;52.164;5.282;2023-01-09T00:52:31;3.88;;;1.30;;
70148;SDS011;57514;52.164;5.282;2023-01-09T00:54:59;3.75;;;1.33;;
70148;SDS011;57514;52.164;5.282;2023-01-09T00:57:26;4.88;;;1.83;;
70148;SDS011;57514;52.164;5.282;2023-01-09T00:59:54;2.60;;;1.00;;
70148;SDS011;57514;52.164;5.282;2023-01-09T01:02:21;4.57;;;1.23;;
70148;SDS011;57514;52.164;5.282;2023-01-09T01:04:48;3.20;;;1.40;;
70148;SDS011;57514;52.164;5.282;2023-01-09T01:07:34;4.15;;;1.10;;
70148;SDS011;57514;52.164;5.282;2023-01-09T01:10:10;5.65;;;1.45;;
70148;SDS011;57514;52.164;5.282;2023-01-09T01:12:38;6.22;;;1.92;;
70148;SDS011;57514;52.164;5.282;2023-01-09T01:15:06;4.57;;;2.40;;
70148;SDS011;57514;52.164;5.282;2023-01-09T01:17:35;2.80;;;1.17;;
70148;SDS011;57514;52.164;5.282;2023-01-09T01:20:03;6.35;;;1.25;;
70148;SDS011;57514;52.164;5.282;2023-01-09T01:22:31;2.28;;;1.33;;
70148;SDS011;57514;52.164;5.282;2023-01-09T01:24:58;3.65;;;1.35;;
70148;SDS011;57514;52.164;5.282;2023-01-09T01:27:26;3.55;;;1.20;;
70148;SDS011;57514;52.164;5.282;2023-01-09T01:29:54;5.30;;;1.27;;
70148;SDS011;57514;52.164;5.282;2023-01-09T01:32:22;5.30;;;1.40;;
70148;SDS011;57514;52.164;5.282;2023-01-09T01:34:49;4.70;;;1.50;;
70148;SDS011;57514;52.164;5.282;2023-01-09T01:37:16;2.90;;;1.23;;
70148;SDS011;57514;52.164;5.282;2023-01-09T01:39:43;5.47;;;1.40;;
70148;SDS011;57514;52.164;5.282;2023-01-09T01:42:11;8.70;;;1.95;;
70148;SDS011;57514;52.164;5.282;2023-01-09T01:44:59;3.83;;;1.30;;
70148;SDS011;57514;52.164;5.282;2023-01-09T01:50:20;4.13;;;1.40;;
70148;SDS011;57514;52.164;5.282;2023-01-09T01:52:52;9.48;;;1.73;;
70148;SDS011;57514;52.164;5.282;2023-01-09T01:55:20;6.18;;;2.40;;
70148;SDS011;57514;52.164;5.282;2023-01-09T01:57:49;4.50;;;1.25;;
70148;SDS011;57514;52.164;5.282;2023-01-09T02:00:20;5.30;;;2.08;;
70148;SDS011;57514;52.164;5.282;2023-01-09T02:02:48;3.72;;;1.60;;
70148;SDS011;57514;52.164;5.282;2023-01-09T02:05:16;6.85;;;2.13;;
70148;SDS011;57514;52.164;5.282;2023-01-09T02:07:43;8.07;;;2.55;;
70148;SDS011;57514;52.164;5.282;2023-01-09T02:10:10;5.43;;;1.70;;
70148;SDS011;57514;52.164;5.282;2023-01-09T02:12:37;2.97;;;1.77;;
70148;SDS011;57514;52.164;5.282;2023-01-09T02:15:09;4.60;;;1.85;;
70148;SDS011;57514;52.164;5.282;2023-01-09T02:17:42;8.45;;;3.13;;
70148;SDS011;57514;52.164;5.282;2023-01-09T02:31:03;11.85;;;4.20;;
70148;SDS011;57514;52.164;5.282;2023-01-09T02:33:38;11.90;;;4.38;;
70148;SDS011;57514;52.164;5.282;2023-01-09T02:36:10;8.45;;;3.03;;
70148;SDS011;57514;52.164;5.282;2023-01-09T02:41:16;9.40;;;4.97;;
70148;SDS011;57514;52.164;5.282;2023-01-09T02:43:46;7.85;;;2.83;;
70148;SDS011;57514;52.164;5.282;2023-01-09T02:46:20;11.80;;;3.97;;
70148;SDS011;57514;52.164;5.282;2023-01-09T02:48:51;10.10;;;4.30;;
70148;SDS011;57514;52.164;5.282;2023-01-09T02:51:30;9.32;;;3.88;;
70148;SDS011;57514;52.164;5.282;2023-01-09T02:56:56;12.10;;;4.70;;
70148;SDS011;57514;52.164;5.282;2023-01-09T02:59:27;5.95;;;2.75;;
70148;SDS011;57514;52.164;5.282;2023-01-09T03:04:53;7.60;;;3.90;;
70148;SDS011;57514;52.164;5.282;2023-01-09T03:07:26;8.00;;;3.17;;
70148;SDS011;57514;52.164;5.282;2023-01-09T03:10:00;12.55;;;5.20;;
70148;SDS011;57514;52.164;5.282;2023-01-09T03:12:28;11.07;;;4.70;;
70148;SDS011;57514;52.164;5.282;2023-01-09T03:14:57;10.65;;;4.43;;
70148;SDS011;57514;52.164;5.282;2023-01-09T03:17:34;10.52;;;4.70;;
70148;SDS011;57514;52.164;5.282;2023-01-09T03:20:04;10.13;;;4.00;;
70148;SDS011;57514;52.164;5.282;2023-01-09T03:22:33;8.85;;;3.30;;
70148;SDS011;57514;52.164;5.282;2023-01-09T03:25:00;13.38;;;5.85;;
70148;SDS011;57514;52.164;5.282;2023-01-09T03:27:28;7.70;;;3.13;;
70148;SDS011;57514;52.164;5.282;2023-01-09T03:29:55;10.60;;;4.28;;
70148;SDS011;57514;52.164;5.282;2023-01-09T03:32:23;12.75;;;4.43;;
70148;SDS011;57514;52.164;5.282;2023-01-09T03:34:52;5.88;;;2.45;;
70148;SDS011;57514;52.164;5.282;2023-01-09T03:37:19;8.50;;;3.17;;
70148;SDS011;57514;52.164;5.282;2023-01-09T03:39:47;9.95;;;3.80;;
70148;SDS011;57514;52.164;5.282;2023-01-09T03:42:14;9.88;;;4.18;;
70148;SDS011;57514;52.164;5.282;2023-01-09T03:44:41;7.35;;;3.03;;
70148;SDS011;57514;52.164;5.282;2023-01-09T03:47:08;9.88;;;3.47;;
70148;SDS011;57514;52.164;5.282;2023-01-09T03:49:35;9.15;;;3.88;;
70148;SDS011;57514;52.164;5.282;2023-01-09T03:52:02;12.63;;;4.68;;
70148;SDS011;57514;52.164;5.282;2023-01-09T03:54:30;8.63;;;3.03;;
70148;SDS011;57514;52.164;5.282;2023-01-09T03:56:57;6.93;;;2.65;;
70148;SDS011;57514;52.164;5.282;2023-01-09T03:59:24;10.52;;;4.20;;
70148;SDS011;57514;52.164;5.282;2023-01-09T04:01:51;8.82;;;2.60;;
70148;SDS011;57514;52.164;5.282;2023-01-09T04:04:19;6.85;;;2.63;;
70148;SDS011;57514;52.164;5.282;2023-01-09T04:06:46;9.55;;;3.20;;
70148;SDS011;57514;52.164;5.282;2023-01-09T04:09:13;6.82;;;3.00;;
70148;SDS011;57514;52.164;5.282;2023-01-09T04:11:40;9.98;;;3.40;;
70148;SDS011;57514;52.164;5.282;2023-01-09T04:14:07;9.00;;;3.10;;
70148;SDS011;57514;52.164;5.282;2023-01-09T04:16:34;7.32;;;2.75;;
70148;SDS011;57514;52.164;5.282;2023-01-09T04:19:02;10.35;;;2.55;;
70148;SDS011;57514;52.164;5.282;2023-01-09T04:21:29;7.43;;;2.78;;
70148;SDS011;57514;52.164;5.282;2023-01-09T04:23:56;9.00;;;3.45;;
70148;SDS011;57514;52.164;5.282;2023-01-09T04:26:23;9.18;;;2.90;;
70148;SDS011;57514;52.164;5.282;2023-01-09T04:28:50;8.65;;;2.53;;
70148;SDS011;57514;52.164;5.282;2023-01-09T04:31:18;5.93;;;2.00;;
70148;SDS011;57514;52.164;5.282;2023-01-09T04:33:45;8.38;;;3.33;;
70148;SDS011;57514;52.164;5.282;2023-01-09T04:36:12;11.50;;;3.05;;
70148;SDS011;57514;52.164;5.282;2023-01-09T04:38:39;8.82;;;3.05;;
70148;SDS011;57514;52.164;5.282;2023-01-09T04:41:07;9.57;;;3.08;;
70148;SDS011;57514;52.164;5.282;2023-01-09T04:43:34;4.13;;;1.77;;
70148;SDS011;57514;52.164;5.282;2023-01-09T04:46:01;5.60;;;2.38;;
70148;SDS011;57514;52.164;5.282;2023-01-09T04:48:29;6.60;;;2.17;;
70148;SDS011;57514;52.164;5.282;2023-01-09T04:50:56;8.73;;;2.65;;
70148;SDS011;57514;52.164;5.282;2023-01-09T04:53:23;8.20;;;2.50;;
70148;SDS011;57514;52.164;5.282;2023-01-09T04:55:50;12.98;;;2.80;;
70148;SDS011;57514;52.164;5.282;2023-01-09T04:58:17;7.95;;;2.55;;
70148;SDS011;57514;52.164;5.282;2023-01-09T05:00:45;6.93;;;1.92;;
70148;SDS011;57514;52.164;5.282;2023-01-09T05:03:12;6.68;;;2.35;;
70148;SDS011;57514;52.164;5.282;2023-01-09T05:05:39;6.55;;;2.15;;
70148;SDS011;57514;52.164;5.282;2023-01-09T05:08:06;5.25;;;2.03;;
70148;SDS011;57514;52.164;5.282;2023-01-09T05:10:34;6.50;;;2.10;;
70148;SDS011;57514;52.164;5.282;2023-01-09T05:13:01;4.07;;;1.98;;
70148;SDS011;57514;52.164;5.282;2023-01-09T05:15:28;6.15;;;1.95;;
70148;SDS011;57514;52.164;5.282;2023-01-09T05:17:56;4.13;;;1.85;;
70148;SDS011;57514;52.164;5.282;2023-01-09T05:20:23;3.70;;;1.85;;
70148;SDS011;57514;52.164;5.282;2023-01-09T05:22:50;7.93;;;2.05;;
70148;SDS011;57514;52.164;5.282;2023-01-09T05:25:17;6.47;;;1.73;;
70148;SDS011;57514;52.164;5.282;2023-01-09T05:27:44;6.57;;;1.77;;
70148;SDS011;57514;52.164;5.282;2023-01-09T05:30:12;7.65;;;2.15;;
70148;SDS011;57514;52.164;5.282;2023-01-09T05:32:43;5.82;;;1.75;;
70148;SDS011;57514;52.164;5.282;2023-01-09T05:35:10;5.65;;;1.95;;
70148;SDS011;57514;52.164;5.282;2023-01-09T05:37:37;5.78;;;2.00;;
70148;SDS011;57514;52.164;5.282;2023-01-09T05:40:05;6.35;;;1.90;;
70148;SDS011;57514;52.164;5.282;2023-01-09T05:42:32;5.05;;;1.50;;
70148;SDS011;57514;52.164;5.282;2023-01-09T05:44:59;10.95;;;2.28;;
70148;SDS011;57514;52.164;5.282;2023-01-09T05:47:26;7.25;;;2.10;;
70148;SDS011;57514;52.164;5.282;2023-01-09T05:49:54;7.65;;;2.30;;
70148;SDS011;57514;52.164;5.282;2023-01-09T05:52:22;7.93;;;1.75;;
70148;SDS011;57514;52.164;5.282;2023-01-09T05:54:49;5.90;;;1.83;;
70148;SDS011;57514;52.164;5.282;2023-01-09T05:57:16;6.72;;;1.98;;
70148;SDS011;57514;52.164;5.282;2023-01-09T05:59:43;4.95;;;1.60;;
70148;SDS011;57514;52.164;5.282;2023-01-09T06:02:11;4.82;;;1.75;;
70148;SDS011;57514;52.164;5.282;2023-01-09T06:04:38;5.20;;;1.52;;
70148;SDS011;57514;52.164;5.282;2023-01-09T06:07:05;3.33;;;1.13;;
70148;SDS011;57514;52.164;5.282;2023-01-09T06:09:32;4.22;;;1.38;;
70148;SDS011;57514;52.164;5.282;2023-01-09T06:12:00;6.97;;;1.85;;
70148;SDS011;57514;52.164;5.282;2023-01-09T06:14:27;6.97;;;1.73;;
70148;SDS011;57514;52.164;5.282;2023-01-09T06:16:54;5.55;;;1.80;;
70148;SDS011;57514;52.164;5.282;2023-01-09T06:19:22;7.50;;;1.85;;
70148;SDS011;57514;52.164;5.282;2023-01-09T06:21:49;4.90;;;1.42;;
70148;SDS011;57514;52.164;5.282;2023-01-09T06:24:16;6.63;;;2.00;;
70148;SDS011;57514;52.164;5.282;2023-01-09T06:26:43;10.52;;;2.10;;
70148;SDS011;57514;52.164;5.282;2023-01-09T06:29:11;6.97;;;1.75;;
70148;SDS011;57514;52.164;5.282;2023-01-09T06:31:38;6.47;;;2.00;;
70148;SDS011;57514;52.164;5.282;2023-01-09T06:34:05;10.07;;;1.73;;
70148;SDS011;57514;52.164;5.282;2023-01-09T06:36:33;8.35;;;2.30;;
70148;SDS011;57514;52.164;5.282;2023-01-09T06:39:00;5.00;;;1.38;;
70148;SDS011;57514;52.164;5.282;2023-01-09T06:41:28;11.57;;;2.15;;
70148;SDS011;57514;52.164;5.282;2023-01-09T06:43:55;7.22;;;1.90;;
70148;SDS011;57514;52.164;5.282;2023-01-09T06:46:22;10.07;;;2.42;;
70148;SDS011;57514;52.164;5.282;2023-01-09T06:48:49;4.65;;;1.58;;
70148;SDS011;57514;52.164;5.282;2023-01-09T06:51:18;5.53;;;2.10;;
70148;SDS011;57514;52.164;5.282;2023-01-09T06:53:45;8.25;;;2.65;;
70148;SDS011;57514;52.164;5.282;2023-01-09T06:56:12;3.65;;;1.85;;
70148;SDS011;57514;52.164;5.282;2023-01-09T06:58:39;8.75;;;2.50;;
70148;SDS011;57514;52.164;5.282;2023-01-09T07:01:06;5.05;;;1.85;;
70148;SDS011;57514;52.164;5.282;2023-01-09T07:03:34;16.20;;;2.05;;
70148;SDS011;57514;52.164;5.282;2023-01-09T07:06:01;11.48;;;2.08;;
70148;SDS011;57514;52.164;5.282;2023-01-09T07:08:29;7.55;;;2.53;;
70148;SDS011;57514;52.164;5.282;2023-01-09T07:10:56;5.60;;;1.90;;
70148;SDS011;57514;52.164;5.282;2023-01-09T07:13:23;8.95;;;2.13;;
70148;SDS011;57514;52.164;5.282;2023-01-09T07:15:53;7.15;;;2.15;;
70148;SDS011;57514;52.164;5.282;2023-01-09T07:18:20;7.40;;;2.10;;
70148;SDS011;57514;52.164;5.282;2023-01-09T07:20:47;6.03;;;2.20;;
70148;SDS011;57514;52.164;5.282;2023-01-09T07:23:14;6.97;;;2.28;;
70148;SDS011;57514;52.164;5.282;2023-01-09T07:25:43;10.13;;;3.17;;
70148;SDS011;57514;52.164;5.282;2023-01-09T07:28:11;6.47;;;2.45;;
70148;SDS011;57514;52.164;5.282;2023-01-09T07:30:38;7.20;;;2.17;;
70148;SDS011;57514;52.164;5.282;2023-01-09T07:33:05;14.57;;;3.30;;
70148;SDS011;57514;52.164;5.282;2023-01-09T07:35:32;6.45;;;2.25;;
70148;SDS011;57514;52.164;5.282;2023-01-09T07:38:00;10.00;;;2.58;;
70148;SDS011;57514;52.164;5.282;2023-01-09T07:40:27;11.32;;;3.55;;
70148;SDS011;57514;52.164;5.282;2023-01-09T07:42:54;13.10;;;3.65;;
70148;SDS011;57514;52.164;5.282;2023-01-09T07:45:21;6.93;;;3.33;;
70148;SDS011;57514;52.164;5.282;2023-01-09T07:47:49;9.88;;;3.55;;
70148;SDS011;57514;52.164;5.282;2023-01-09T07:50:17;7.28;;;2.75;;
70148;SDS011;57514;52.164;5.282;2023-01-09T07:52:45;4.47;;;1.73;;
70148;SDS011;57514;52.164;5.282;2023-01-09T07:55:12;13.20;;;3.17;;
70148;SDS011;57514;52.164;5.282;2023-01-09T07:57:42;7.72;;;3.10;;
70148;SDS011;57514;52.164;5.282;2023-01-09T08:00:13;10.65;;;4.35;;
70148;SDS011;57514;52.164;5.282;2023-01-09T08:02:40;11.80;;;3.95;;
70148;SDS011;57514;52.164;5.282;2023-01-09T08:05:08;10.52;;;3.35;;
70148;SDS011;57514;52.164;5.282;2023-01-09T08:07:40;10.10;;;3.60;;
70148;SDS011;57514;52.164;5.282;2023-01-09T08:10:07;11.35;;;3.78;;
70148;SDS011;57514;52.164;5.282;2023-01-09T08:12:35;9.48;;;3.13;;
70148;SDS011;57514;52.164;5.282;2023-01-09T08:15:02;9.00;;;3.50;;
70148;SDS011;57514;52.164;5.282;2023-01-09T08:17:30;9.52;;;3.53;;
70148;SDS011;57514;52.164;5.282;2023-01-09T08:19:57;8.45;;;3.08;;
70148;SDS011;57514;52.164;5.282;2023-01-09T08:22:24;11.30;;;3.55;;
70148;SDS011;57514;52.164;5.282;2023-01-09T08:24:51;11.70;;;4.50;;
70148;SDS011;57514;52.164;5.282;2023-01-09T08:27:19;8.13;;;2.92;;
70148;SDS011;57514;52.164;5.282;2023-01-09T08:29:46;4.63;;;1.92;;
70148;SDS011;57514;52.164;5.282;2023-01-09T08:32:13;6.85;;;2.53;;
70148;SDS011;57514;52.164;5.282;2023-01-09T08:34:40;2.90;;;1.45;;
70148;SDS011;57514;52.164;5.282;2023-01-09T08:37:07;7.90;;;2.28;;
70148;SDS011;57514;52.164;5.282;2023-01-09T08:39:35;6.18;;;2.10;;
70148;SDS011;57514;52.164;5.282;2023-01-09T08:42:02;7.57;;;2.55;;
70148;SDS011;57514;52.164;5.282;2023-01-09T08:44:48;5.93;;;1.95;;
70148;SDS011;57514;52.164;5.282;2023-01-09T08:47:33;2.97;;;1.55;;
70148;SDS011;57514;52.164;5.282;2023-01-09T08:50:02;8.15;;;2.05;;
70148;SDS011;57514;52.164;5.282;2023-01-09T08:52:29;7.50;;;2.20;;
70148;SDS011;57514;52.164;5.282;2023-01-09T08:54:58;5.03;;;1.38;;
70148;SDS011;57514;52.164;5.282;2023-01-09T08:57:25;2.97;;;1.38;;
70148;SDS011;57514;52.164;5.282;2023-01-09T08:59:52;6.13;;;1.88;;
70148;SDS011;57514;52.164;5.282;2023-01-09T09:02:19;4.15;;;1.50;;
70148;SDS011;57514;52.164;5.282;2023-01-09T09:04:47;4.18;;;1.40;;
70148;SDS011;57514;52.164;5.282;2023-01-09T09:09:52;4.32;;;1.20;;
70148;SDS011;57514;52.164;5.282;2023-01-09T09:12:20;2.92;;;1.60;;
70148;SDS011;57514;52.164;5.282;2023-01-09T09:14:47;4.82;;;1.98;;
70148;SDS011;57514;52.164;5.282;2023-01-09T09:17:33;4.22;;;1.75;;
70148;SDS011;57514;52.164;5.282;2023-01-09T09:20:00;4.00;;;1.42;;
70148;SDS011;57514;52.164;5.282;2023-01-09T09:22:27;5.53;;;1.58;;
70148;SDS011;57514;52.164;5.282;2023-01-09T09:24:54;5.28;;;1.60;;
70148;SDS011;57514;52.164;5.282;2023-01-09T09:27:22;6.30;;;1.75;;
70148;SDS011;57514;52.164;5.282;2023-01-09T09:29:49;5.43;;;1.85;;
70148;SDS011;57514;52.164;5.282;2023-01-09T09:32:16;5.47;;;1.52;;
70148;SDS011;57514;52.164;5.282;2023-01-09T09:34:43;4.28;;;1.45;;
70148;SDS011;57514;52.164;5.282;2023-01-09T09:37:11;7.63;;;1.40;;
70148;SDS011;57514;52.164;5.282;2023-01-09T09:39:38;4.53;;;1.25;;
70148;SDS011;57514;52.164;5.282;2023-01-09T09:42:19;7.30;;;1.60;;
70148;SDS011;57514;52.164;5.282;2023-01-09T09:45:29;8.32;;;1.63;;
70148;SDS011;57514;52.164;5.282;2023-01-09T09:48:04;2.22;;;1.10;;
70148;SDS011;57514;52.164;5.282;2023-01-09T09:53:19;8.02;;;1.30;;
70148;SDS011;57514;52.164;5.282;2023-01-09T09:55:47;6.10;;;1.27;;
70148;SDS011;57514;52.164;5.282;2023-01-09T09:58:20;8.00;;;1.08;;
70148;SDS011;57514;52.164;5.282;2023-01-09T10:00:51;8.02;;;1.88;;
70148;SDS011;57514;52.164;5.282;2023-01-09T10:03:34;6.55;;;1.40;;
70148;SDS011;57514;52.164;5.282;2023-01-09T10:06:07;5.00;;;1.42;;
70148;SDS011;57514;52.164;5.282;2023-01-09T10:11:37;5.53;;;1.33;;
70148;SDS011;57514;52.164;5.282;2023-01-09T10:14:01;10.23;;;1.88;;
70148;SDS011;57514;52.164;5.282;2023-01-09T10:19:42;9.32;;;1.90;;
70148;SDS011;57514;52.164;5.282;2023-01-09T10:28:15;12.40;;;1.80;;
70148;SDS011;57514;52.164;5.282;2023-01-09T10:30:49;12.30;;;2.05;;
70148;SDS011;57514;52.164;5.282;2023-01-09T10:38:34;13.82;;;2.17;;
70148;SDS011;57514;52.164;5.282;2023-01-09T10:41:09;9.13;;;2.40;;
70148;SDS011;57514;52.164;5.282;2023-01-09T10:43:47;8.35;;;1.95;;
70148;SDS011;57514;52.164;5.282;2023-01-09T10:46:21;7.32;;;1.52;;
70148;SDS011;57514;52.164;5.282;2023-01-09T10:48:51;7.22;;;1.40;;
70148;SDS011;57514;52.164;5.282;2023-01-09T10:51:38;6.00;;;1.10;;
70148;SDS011;57514;52.164;5.282;2023-01-09T10:54:11;7.30;;;1.70;;
70148;SDS011;57514;52.164;5.282;2023-01-09T10:56:40;7.00;;;1.10;;
70148;SDS011;57514;52.164;5.282;2023-01-09T10:59:09;6.60;;;1.17;;
70148;SDS011;57514;52.164;5.282;2023-01-09T11:01:37;5.63;;;2.90;;
70148;SDS011;57514;52.164;5.282;2023-01-09T11:04:17;6.80;;;1.90;;
70148;SDS011;57514;52.164;5.282;2023-01-09T11:06:46;7.22;;;1.80;;
70148;SDS011;57514;52.164;5.282;2023-01-09T11:11:43;6.97;;;1.58;;
70148;SDS011;57514;52.164;5.282;2023-01-09T11:16:49;7.53;;;1.55;;
70148;SDS011;57514;52.164;5.282;2023-01-09T11:19:17;7.30;;;2.03;;
70148;SDS011;57514;52.164;5.282;2023-01-09T11:21:44;6.07;;;1.55;;
70148;SDS011;57514;52.164;5.282;2023-01-09T11:26:49;14.95;;;2.35;;
70148;SDS011;57514;52.164;5.282;2023-01-09T11:29:18;7.78;;;1.67;;
70148;SDS011;57514;52.164;5.282;2023-01-09T11:31:53;11.27;;;2.03;;
70148;SDS011;57514;52.164;5.282;2023-01-09T11:34:21;13.35;;;2.30;;
70148;SDS011;57514;52.164;5.282;2023-01-09T11:36:50;9.27;;;2.35;;
70148;SDS011;57514;52.164;5.282;2023-01-09T11:39:22;11.02;;;2.20;;
70148;SDS011;57514;52.164;5.282;2023-01-09T11:41:55;10.43;;;2.85;;
70148;SDS011;57514;52.164;5.282;2023-01-09T11:44:23;12.82;;;2.25;;
70148;SDS011;57514;52.164;5.282;2023-01-09T11:46:50;12.25;;;2.15;;
70148;SDS011;57514;52.164;5.282;2023-01-09T11:54:30;10.05;;;2.17;;
70148;SDS011;57514;52.164;5.282;2023-01-09T11:56:58;13.30;;;2.33;;
70148;SDS011;57514;52.164;5.282;2023-01-09T11:59:29;10.75;;;2.40;;
70148;SDS011;57514;52.164;5.282;2023-01-09T12:20:56;9.18;;;2.58;;
70148;SDS011;57514;52.164;5.282;2023-01-09T12:23:35;12.57;;;2.80;;
70148;SDS011;57514;52.164;5.282;2023-01-09T12:28:46;7.38;;;2.33;;
70148;SDS011;57514;52.164;5.282;2023-01-09T12:38:39;7.28;;;1.70;;
70148;SDS011;57514;52.164;5.282;2023-01-09T12:41:26;9.50;;;2.28;;
70148;SDS011;57514;52.164;5.282;2023-01-09T12:44:07;11.80;;;2.08;;
70148;SDS011;57514;52.164;5.282;2023-01-09T12:46:46;11.38;;;2.88;;
70148;SDS011;57514;52.164;5.282;2023-01-09T12:51:56;12.65;;;2.38;;
70148;SDS011;57514;52.164;5.282;2023-01-09T12:57:33;8.68;;;1.77;;
70148;SDS011;57514;52.164;5.282;2023-01-09T12:59:53;11.10;;;2.33;;
70148;SDS011;57514;52.164;5.282;2023-01-09T13:02:23;20.92;;;2.78;;
70148;SDS011;57514;52.164;5.282;2023-01-09T13:05:05;12.90;;;2.28;;
70148;SDS011;57514;52.164;5.282;2023-01-09T13:07:38;12.90;;;2.50;;
70148;SDS011;57514;52.164;5.282;2023-01-09T13:10:10;8.15;;;2.08;;
70148;SDS011;57514;52.164;5.282;2023-01-09T13:12:42;13.70;;;2.95;;
70148;SDS011;57514;52.164;5.282;2023-01-09T13:15:18;13.75;;;2.15;;
70148;SDS011;57514;52.164;5.282;2023-01-09T13:17:48;13.70;;;2.50;;
70148;SDS011;57514;52.164;5.282;2023-01-09T13:22:47;9.77;;;2.20;;
70148;SDS011;57514;52.164;5.282;2023-01-09T13:27:53;12.05;;;2.70;;
70148;SDS011;57514;52.164;5.282;2023-01-09T13:33:02;11.60;;;2.08;;
70148;SDS011;57514;52.164;5.282;2023-01-09T13:35:33;15.50;;;2.13;;
70148;SDS011;57514;52.164;5.282;2023-01-09T13:38:00;15.73;;;2.63;;
70148;SDS011;57514;52.164;5.282;2023-01-09T13:40:28;7.80;;;1.80;;
70148;SDS011;57514;52.164;5.282;2023-01-09T13:45:26;12.38;;;2.25;;
70148;SDS011;57514;52.164;5.282;2023-01-09T13:48:16;10.70;;;1.88;;
70148;SDS011;57514;52.164;5.282;2023-01-09T13:50:49;12.80;;;2.60;;
70148;SDS011;57514;52.164;5.282;2023-01-09T13:56:03;11.45;;;2.33;;
70148;SDS011;57514;52.164;5.282;2023-01-09T14:06:38;15.13;;;2.65;;
70148;SDS011;57514;52.164;5.282;2023-01-09T14:09:18;10.02;;;2.35;;
70148;SDS011;57514;52.164;5.282;2023-01-09T14:11:45;16.58;;;2.42;;
70148;SDS011;57514;52.164;5.282;2023-01-09T14:14:18;13.52;;;1.98;;
70148;SDS011;57514;52.164;5.282;2023-01-09T14:16:48;11.52;;;2.15;;
70148;SDS011;57514;52.164;5.282;2023-01-09T14:19:21;8.48;;;1.98;;
70148;SDS011;57514;52.164;5.282;2023-01-09T14:21:53;9.10;;;2.10;;
70148;SDS011;57514;52.164;5.282;2023-01-09T14:24:22;12.85;;;2.28;;
70148;SDS011;57514;52.164;5.282;2023-01-09T14:26:51;5.75;;;1.70;;
70148;SDS011;57514;52.164;5.282;2023-01-09T14:35:21;12.55;;;2.13;;
70148;SDS011;57514;52.164;5.282;2023-01-09T14:37:41;9.25;;;2.20;;
70148;SDS011;57514;52.164;5.282;2023-01-09T14:40:20;10.15;;;2.00;;
70148;SDS011;57514;52.164;5.282;2023-01-09T14:42:50;8.77;;;2.20;;
70148;SDS011;57514;52.164;5.282;2023-01-09T14:45:22;12.82;;;2.15;;
70148;SDS011;57514;52.164;5.282;2023-01-09T14:47:55;8.65;;;2.00;;
70148;SDS011;57514;52.164;5.282;2023-01-09T14:53:05;11.75;;;2.08;;
70148;SDS011;57514;52.164;5.282;2023-01-09T14:58:24;11.35;;;2.05;;
70148;SDS011;57514;52.164;5.282;2023-01-09T15:01:05;9.98;;;2.22;;
70148;SDS011;57514;52.164;5.282;2023-01-09T15:03:36;12.20;;;2.42;;
70148;SDS011;57514;52.164;5.282;2023-01-09T15:06:04;10.68;;;2.53;;
70148;SDS011;57514;52.164;5.282;2023-01-09T15:08:32;11.38;;;2.20;;
70148;SDS011;57514;52.164;5.282;2023-01-09T15:10:59;13.23;;;2.40;;
70148;SDS011;57514;52.164;5.282;2023-01-09T15:13:28;11.52;;;2.30;;
70148;SDS011;57514;52.164;5.282;2023-01-09T15:15:56;9.30;;;2.03;;
70148;SDS011;57514;52.164;5.282;2023-01-09T15:18:24;13.25;;;2.53;;
70148;SDS011;57514;52.164;5.282;2023-01-09T15:20:54;7.97;;;1.90;;
70148;SDS011;57514;52.164;5.282;2023-01-09T15:23:25;11.07;;;2.05;;
70148;SDS011;57514;52.164;5.282;2023-01-09T15:26:11;7.70;;;2.20;;
70148;SDS011;57514;52.164;5.282;2023-01-09T15:28:41;12.80;;;2.60;;
70148;SDS011;57514;52.164;5.282;2023-01-09T15:31:10;14.57;;;3.75;;
70148;SDS011;57514;52.164;5.282;2023-01-09T15:33:38;15.00;;;4.10;;
70148;SDS011;57514;52.164;5.282;2023-01-09T15:36:10;15.02;;;2.78;;
70148;SDS011;57514;52.164;5.282;2023-01-09T15:38:38;15.55;;;2.45;;
70148;SDS011;57514;52.164;5.282;2023-01-09T15:41:08;12.70;;;2.60;;
70148;SDS011;57514;52.164;5.282;2023-01-09T15:43:40;14.00;;;2.97;;
70148;SDS011;57514;52.164;5.282;2023-01-09T15:46:09;11.25;;;2.70;;
70148;SDS011;57514;52.164;5.282;2023-01-09T15:48:37;17.60;;;3.75;;
70148;SDS011;57514;52.164;5.282;2023-01-09T15:51:05;9.70;;;2.05;;
70148;SDS011;57514;52.164;5.282;2023-01-09T15:53:32;18.10;;;2.65;;
70148;SDS011;57514;52.164;5.282;2023-01-09T15:56:13;4.72;;;1.58;;
70148;SDS011;57514;52.164;5.282;2023-01-09T15:58:46;13.68;;;3.00;;
70148;SDS011;57514;52.164;5.282;2023-01-09T16:01:22;11.05;;;2.20;;
70148;SDS011;57514;52.164;5.282;2023-01-09T16:03:51;7.22;;;2.08;;
70148;SDS011;57514;52.164;5.282;2023-01-09T16:06:21;12.18;;;2.10;;
70148;SDS011;57514;52.164;5.282;2023-01-09T16:08:50;18.08;;;2.75;;
70148;SDS011;57514;52.164;5.282;2023-01-09T16:11:21;9.27;;;2.33;;
70148;SDS011;57514;52.164;5.282;2023-01-09T16:13:49;13.90;;;4.22;;
70148;SDS011;57514;52.164;5.282;2023-01-09T16:16:29;14.25;;;3.13;;
70148;SDS011;57514;52.164;5.282;2023-01-09T16:18:57;17.45;;;5.50;;
70148;SDS011;57514;52.164;5.282;2023-01-09T16:21:32;16.65;;;4.90;;
70148;SDS011;57514;52.164;5.282;2023-01-09T16:24:01;18.00;;;4.40;;
70148;SDS011;57514;52.164;5.282;2023-01-09T16:31:43;17.10;;;3.15;;
70148;SDS011;57514;52.164;5.282;2023-01-09T16:34:10;16.95;;;3.50;;
70148;SDS011;57514;52.164;5.282;2023-01-09T16:36:38;15.18;;;2.90;;
70148;SDS011;57514;52.164;5.282;2023-01-09T16:39:08;17.92;;;5.03;;
70148;SDS011;57514;52.164;5.282;2023-01-09T16:41:41;17.65;;;3.10;;
70148;SDS011;57514;52.164;5.282;2023-01-09T16:44:27;11.75;;;3.35;;
70148;SDS011;57514;52.164;5.282;2023-01-09T16:46:54;9.68;;;2.38;;
70148;SDS011;57514;52.164;5.282;2023-01-09T16:49:22;14.07;;;3.33;;
70148;SDS011;57514;52.164;5.282;2023-01-09T16:51:52;21.85;;;3.05;;
70148;SDS011;57514;52.164;5.282;2023-01-09T16:54:20;14.75;;;3.17;;
70148;SDS011;57514;52.164;5.282;2023-01-09T16:56:48;22.40;;;4.20;;
70148;SDS011;57514;52.164;5.282;2023-01-09T16:59:17;16.35;;;3.33;;
70148;SDS011;57514;52.164;5.282;2023-01-09T17:01:46;14.88;;;4.40;;
70148;SDS011;57514;52.164;5.282;2023-01-09T17:04:14;9.20;;;2.55;;
70148;SDS011;57514;52.164;5.282;2023-01-09T17:06:43;7.70;;;2.72;;